Auk-Alfa, Netherlands

2:25 AM CEST on August 02, 2014 (GMT +0200)
Ekofisk (ENEK) Elev 10 ft | 56.55 °N, 3.25 °E | Change Station

Current weather conditions updated 35 minutes ago

Scattered Clouds
Scattered Clouds
64 °F
Feels Like 64 °F
N
21
Wind Variable Wind from SE

Today is forecast to be Cooler than yesterday. Light rain developing in the afternoon.

Today
High -- | Low -- °F
--% Chance of Precip.
Yesterday
High -- | Low -- °F
Precip. -- in
5:55 AM 9:59 PM
Waxing Crescent, 30% visible
Pressure 29.77 in
Visibility 6.2 miles
Clouds Few 1500 ft
Scattered Clouds 15000 ft
Dew Point 63 °F
Humidity 94%
Rainfall 0.00 in
Snow Depth Not available.
UV 0 out of 12
Pollen Not available.
Air Quality Not available.
Flu Activity Not available.
METAR ENEK 012350Z 14018KT 9999 FEW015 SCT150 18/17 Q1008 W18/S3

More Conditions Fewer Conditions

Pressure 29.77 in
Visibility 6.2 miles
Clouds Few 1500 ft
Scattered Clouds 15000 ft
Dew Point 63 °F
Humidity 94%
Rainfall 0.00 in
Snow Depth Not available.
UV 0 out of 12
Pollen Not available.
Air Quality Not available.
Flu Activity Not available.
METAR ENEK 012350Z 14018KT 9999 FEW015 SCT150 18/17 Q1008 W18/S3

More Conditions Fewer Conditions

10-Day Weather Forecast

Almanac

Astronomy

Aug. 02, 2014 Rise Set
Actual Time 5:55 AM CEST 9:59 PM CEST
Civil Twilight 5:06 AM CEST 10:48 PM CEST
Nautical Twilight 3:52 AM CEST 12:00 AM CEST
Astronomical Twilight 2:30 AM CEST 1:25 AM CEST
Moon 1:21 PM CEST 11:45 PM CEST
Length of Visible Light 17h 41m
Length of Day
16h 04m
Tomorrow will be 4m 0s shorter.
Waxing Crescent, 30% of the Moon is Illuminated
Aug 1
Waxing Crescent
Aug 3
First Quarter
Aug 10
Full
Aug 17
Last Quarter
Aug 25
New

Yesterday's Extremes

Country Highs Country Lows

Community

WunderPhotos

Upload Photos

1,739,763 photos uploaded!

Nearby

Snow Depth

Not available.

Earthquake Activity

City Distance Mag. Time & Date
No recent earthquake activity has been reported nearby.
Minimum magnitude displayed is 2.5.

Coastal Water Temperatures

Place Temperature
No Stations Reporting

Nearby Weather Stations

There are no personal weather stations in this area.